sensor_id;sensor_type;location;lat;lon;timestamp;pressure;altitude;pressure_sealevel;temperature;humidity
36138;BME280;67787;50.074;21.904;2023-04-30T18:00:02;99303.13;;;11.55;50.94
36138;BME280;67787;50.074;21.904;2023-04-30T18:02:31;99302.21;;;11.45;50.94
36138;BME280;67787;50.074;21.904;2023-04-30T18:04:57;99311.08;;;11.38;51.02
36138;BME280;67787;50.074;21.904;2023-04-30T18:07:24;99310.52;;;11.28;50.80
36138;BME280;67787;50.074;21.904;2023-04-30T18:09:51;99310.23;;;11.20;50.83
36138;BME280;67787;50.074;21.904;2023-04-30T18:12:17;99313.95;;;11.13;50.85
36138;BME280;67787;50.074;21.904;2023-04-30T18:14:44;99312.52;;;11.05;50.70
36138;BME280;67787;50.074;21.904;2023-04-30T18:17:14;99316.22;;;10.95;50.73
36138;BME280;67787;50.074;21.904;2023-04-30T18:19:41;99317.97;;;10.85;50.69
36138;BME280;67787;50.074;21.904;2023-04-30T18:22:13;99320.32;;;10.77;50.55
36138;BME280;67787;50.074;21.904;2023-04-30T18:24:40;99329.36;;;10.69;50.55
36138;BME280;67787;50.074;21.904;2023-04-30T18:27:09;99335.10;;;10.61;50.58
36138;BME280;67787;50.074;21.904;2023-04-30T18:29:35;99338.55;;;10.51;50.60
36138;BME280;67787;50.074;21.904;2023-04-30T18:32:03;99341.09;;;10.42;50.58
36138;BME280;67787;50.074;21.904;2023-04-30T18:34:30;99344.41;;;10.35;50.60
36138;BME280;67787;50.074;21.904;2023-04-30T18:36:57;99350.13;;;10.26;50.63
36138;BME280;67787;50.074;21.904;2023-04-30T18:39:23;99353.89;;;10.18;50.60
36138;BME280;67787;50.074;21.904;2023-04-30T18:41:50;99359.32;;;10.05;50.75
36138;BME280;67787;50.074;21.904;2023-04-30T18:44:27;99363.88;;;9.92;50.62
36138;BME280;67787;50.074;21.904;2023-04-30T18:46:57;99368.64;;;9.78;50.75
36138;BME280;67787;50.074;21.904;2023-04-30T18:49:24;99373.81;;;9.67;50.79
36138;BME280;67787;50.074;21.904;2023-04-30T18:51:50;99374.75;;;9.58;50.86
36138;BME280;67787;50.074;21.904;2023-04-30T18:54:17;99375.85;;;9.49;50.94
36138;BME280;67787;50.074;21.904;2023-04-30T18:56:46;99377.85;;;9.39;50.86
36138;BME280;67787;50.074;21.904;2023-04-30T18:59:15;99379.77;;;9.29;50.82
36138;BME280;67787;50.074;21.904;2023-04-30T19:01:42;99386.93;;;9.24;50.82
36138;BME280;67787;50.074;21.904;2023-04-30T19:04:09;99387.66;;;9.18;50.76
36138;BME280;67787;50.074;21.904;2023-04-30T19:06:38;99390.70;;;9.12;50.87
36138;BME280;67787;50.074;21.904;2023-04-30T19:09:05;99400.77;;;9.06;50.88
36138;BME280;67787;50.074;21.904;2023-04-30T19:11:31;99396.79;;;8.99;50.78
36138;BME280;67787;50.074;21.904;2023-04-30T19:14:01;99401.05;;;8.95;50.76
36138;BME280;67787;50.074;21.904;2023-04-30T19:16:28;99401.05;;;8.90;50.76
36138;BME280;67787;50.074;21.904;2023-04-30T19:18:56;99401.33;;;8.85;50.88
36138;BME280;67787;50.074;21.904;2023-04-30T19:21:23;99396.62;;;8.75;50.90
36138;BME280;67787;50.074;21.904;2023-04-30T19:23:51;99398.86;;;8.67;51.04
36138;BME280;67787;50.074;21.904;2023-04-30T19:26:18;99399.39;;;8.58;51.00
36138;BME280;67787;50.074;21.904;2023-04-30T19:28:49;99404.38;;;8.48;51.00
36138;BME280;67787;50.074;21.904;2023-04-30T19:31:16;99406.27;;;8.39;51.09
36138;BME280;67787;50.074;21.904;2023-04-30T19:33:44;99406.52;;;8.29;51.18
36138;BME280;67787;50.074;21.904;2023-04-30T19:36:10;99412.99;;;8.21;50.94
36138;BME280;67787;50.074;21.904;2023-04-30T19:38:37;99408.98;;;8.13;51.10
36138;BME280;67787;50.074;21.904;2023-04-30T19:41:03;99413.80;;;8.06;51.13
36138;BME280;67787;50.074;21.904;2023-04-30T19:43:30;99417.88;;;8.03;51.09
36138;BME280;67787;50.074;21.904;2023-04-30T19:45:57;99417.20;;;7.99;51.14
36138;BME280;67787;50.074;21.904;2023-04-30T19:48:32;99420.27;;;7.98;51.32
36138;BME280;67787;50.074;21.904;2023-04-30T19:51:08;99425.23;;;7.91;51.11
36138;BME280;67787;50.074;21.904;2023-04-30T19:53:44;99423.75;;;7.83;51.28
36138;BME280;67787;50.074;21.904;2023-04-30T19:56:11;99422.70;;;7.73;51.49
36138;BME280;67787;50.074;21.904;2023-04-30T19:58:46;99431.27;;;7.65;51.47
36138;BME280;67787;50.074;21.904;2023-04-30T20:01:13;99431.61;;;7.58;51.46
36138;BME280;67787;50.074;21.904;2023-04-30T20:03:41;99435.03;;;7.54;51.38
36138;BME280;67787;50.074;21.904;2023-04-30T20:06:08;99438.16;;;7.48;51.57
36138;BME280;67787;50.074;21.904;2023-04-30T20:08:37;99441.26;;;7.43;51.39
36138;BME280;67787;50.074;21.904;2023-04-30T20:11:04;99444.14;;;7.42;51.58
36138;BME280;67787;50.074;21.904;2023-04-30T20:13:31;99444.41;;;7.37;51.70
36138;BME280;67787;50.074;21.904;2023-04-30T20:15:58;99446.52;;;7.30;51.48
36138;BME280;67787;50.074;21.904;2023-04-30T20:18:25;99445.83;;;7.23;51.80
36138;BME280;67787;50.074;21.904;2023-04-30T20:20:52;99449.30;;;7.21;51.54
36138;BME280;67787;50.074;21.904;2023-04-30T20:23:21;99448.72;;;7.19;51.83
36138;BME280;67787;50.074;21.904;2023-04-30T20:25:47;99452.42;;;7.15;51.85
36138;BME280;67787;50.074;21.904;2023-04-30T20:28:16;99455.14;;;7.11;52.00
36138;BME280;67787;50.074;21.904;2023-04-30T20:30:43;99457.91;;;7.05;51.59
36138;BME280;67787;50.074;21.904;2023-04-30T20:33:19;99457.66;;;7.03;52.26
36138;BME280;67787;50.074;21.904;2023-04-30T20:35:45;99456.37;;;6.96;52.02
36138;BME280;67787;50.074;21.904;2023-04-30T20:38:13;99460.29;;;6.96;52.15
36138;BME280;67787;50.074;21.904;2023-04-30T20:40:41;99461.55;;;6.89;52.28
36138;BME280;67787;50.074;21.904;2023-04-30T20:43:10;99462.42;;;6.81;52.08
36138;BME280;67787;50.074;21.904;2023-04-30T20:45:38;99467.29;;;6.79;52.23
36138;BME280;67787;50.074;21.904;2023-04-30T20:48:08;99470.11;;;6.76;52.19
36138;BME280;67787;50.074;21.904;2023-04-30T20:50:35;99473.28;;;6.69;52.35
36138;BME280;67787;50.074;21.904;2023-04-30T20:53:03;99467.91;;;6.67;52.34
36138;BME280;67787;50.074;21.904;2023-04-30T20:55:38;99467.08;;;6.62;52.37
36138;BME280;67787;50.074;21.904;2023-04-30T20:58:10;99469.10;;;6.57;52.38
36138;BME280;67787;50.074;21.904;2023-04-30T21:00:40;99473.14;;;6.54;52.63
36138;BME280;67787;50.074;21.904;2023-04-30T21:03:10;99473.58;;;6.52;52.39
36138;BME280;67787;50.074;21.904;2023-04-30T21:05:39;99478.27;;;6.47;52.51
36138;BME280;67787;50.074;21.904;2023-04-30T21:08:06;99481.63;;;6.43;52.47
36138;BME280;67787;50.074;21.904;2023-04-30T21:10:32;99480.52;;;6.40;52.54
36138;BME280;67787;50.074;21.904;2023-04-30T21:13:02;99484.66;;;6.38;52.38
36138;BME280;67787;50.074;21.904;2023-04-30T21:15:32;99485.39;;;6.34;52.53
36138;BME280;67787;50.074;21.904;2023-04-30T21:18:04;99483.85;;;6.33;52.59
36138;BME280;67787;50.074;21.904;2023-04-30T21:20:31;99486.63;;;6.34;52.67
36138;BME280;67787;50.074;21.904;2023-04-30T21:22:58;99486.48;;;6.30;52.80
36138;BME280;67787;50.074;21.904;2023-04-30T21:25:30;99487.59;;;6.25;52.66
36138;BME280;67787;50.074;21.904;2023-04-30T21:27:57;99490.23;;;6.21;52.62
36138;BME280;67787;50.074;21.904;2023-04-30T21:30:27;99492.71;;;6.21;52.84
36138;BME280;67787;50.074;21.904;2023-04-30T21:32:53;99495.96;;;6.19;52.88
36138;BME280;67787;50.074;21.904;2023-04-30T21:35:29;99496.55;;;6.18;52.81
36138;BME280;67787;50.074;21.904;2023-04-30T21:38:00;99495.58;;;6.16;52.83
36138;BME280;67787;50.074;21.904;2023-04-30T21:40:31;99496.95;;;6.13;53.00
36138;BME280;67787;50.074;21.904;2023-04-30T21:42:58;99498.88;;;6.09;53.00
36138;BME280;67787;50.074;21.904;2023-04-30T21:45:26;99498.36;;;6.09;52.96
36138;BME280;67787;50.074;21.904;2023-04-30T21:47:55;99497.54;;;6.08;53.15
36138;BME280;67787;50.074;21.904;2023-04-30T21:50:22;99500.61;;;6.06;53.18
36138;BME280;67787;50.074;21.904;2023-04-30T21:52:49;99502.25;;;6.05;53.41
36138;BME280;67787;50.074;21.904;2023-04-30T21:55:16;99505.31;;;6.04;53.04
36138;BME280;67787;50.074;21.904;2023-04-30T21:57:46;99505.59;;;6.01;53.24
36138;BME280;67787;50.074;21.904;2023-04-30T22:00:14;99505.11;;;5.96;53.25
36138;BME280;67787;50.074;21.904;2023-04-30T22:02:42;99511.72;;;5.93;53.35
36138;BME280;67787;50.074;21.904;2023-04-30T22:05:10;99514.04;;;5.93;53.55
36138;BME280;67787;50.074;21.904;2023-04-30T22:07:41;99514.30;;;5.91;53.40
36138;BME280;67787;50.074;21.904;2023-04-30T22:10:07;99518.46;;;5.89;53.65
36138;BME280;67787;50.074;21.904;2023-04-30T22:12:39;99521.83;;;5.85;53.56
36138;BME280;67787;50.074;21.904;2023-04-30T22:15:07;99522.14;;;5.82;53.67
36138;BME280;67787;50.074;21.904;2023-04-30T22:17:34;99521.02;;;5.75;53.65
36138;BME280;67787;50.074;21.904;2023-04-30T22:20:02;99520.17;;;5.71;53.84
36138;BME280;67787;50.074;21.904;2023-04-30T22:22:29;99518.59;;;5.67;53.63
36138;BME280;67787;50.074;21.904;2023-04-30T22:24:56;99523.70;;;5.66;53.82
36138;BME280;67787;50.074;21.904;2023-04-30T22:27:23;99521.42;;;5.66;53.75
36138;BME280;67787;50.074;21.904;2023-04-30T22:29:49;99517.27;;;5.65;53.82
36138;BME280;67787;50.074;21.904;2023-04-30T22:32:16;99520.27;;;5.61;53.88
36138;BME280;67787;50.074;21.904;2023-04-30T22:34:45;99520.56;;;5.58;53.92
36138;BME280;67787;50.074;21.904;2023-04-30T22:37:13;99517.31;;;5.56;54.06
36138;BME280;67787;50.074;21.904;2023-04-30T22:39:40;99522.38;;;5.52;53.93
36138;BME280;67787;50.074;21.904;2023-04-30T22:42:10;99527.03;;;5.51;54.00
36138;BME280;67787;50.074;21.904;2023-04-30T22:44:36;99527.46;;;5.49;53.98
36138;BME280;67787;50.074;21.904;2023-04-30T22:47:03;99528.33;;;5.49;54.00
36138;BME280;67787;50.074;21.904;2023-04-30T22:49:32;99532.33;;;5.47;53.95
36138;BME280;67787;50.074;21.904;2023-04-30T22:51:59;99528.58;;;5.44;53.97
36138;BME280;67787;50.074;21.904;2023-04-30T22:54:29;99528.83;;;5.42;54.12
36138;BME280;67787;50.074;21.904;2023-04-30T22:56:56;99531.01;;;5.41;54.27
36138;BME280;67787;50.074;21.904;2023-04-30T22:59:23;99531.52;;;5.36;54.34
36138;BME280;67787;50.074;21.904;2023-04-30T23:01:50;99530.05;;;5.34;54.29
36138;BME280;67787;50.074;21.904;2023-04-30T23:04:18;99532.44;;;5.31;54.30
36138;BME280;67787;50.074;21.904;2023-04-30T23:06:45;99534.10;;;5.30;54.43
36138;BME280;67787;50.074;21.904;2023-04-30T23:09:11;99532.23;;;5.28;54.39
36138;BME280;67787;50.074;21.904;2023-04-30T23:11:40;99533.11;;;5.25;54.43
36138;BME280;67787;50.074;21.904;2023-04-30T23:14:10;99537.08;;;5.22;54.46
36138;BME280;67787;50.074;21.904;2023-04-30T23:16:37;99539.46;;;5.19;54.52
36138;BME280;67787;50.074;21.904;2023-04-30T23:19:08;99540.61;;;5.17;54.43
36138;BME280;67787;50.074;21.904;2023-04-30T23:21:35;99541.27;;;5.14;54.59
36138;BME280;67787;50.074;21.904;2023-04-30T23:24:01;99542.22;;;5.12;54.50
36138;BME280;67787;50.074;21.904;2023-04-30T23:26:33;99541.94;;;5.11;54.55
36138;BME280;67787;50.074;21.904;2023-04-30T23:29:01;99543.58;;;5.10;54.61
36138;BME280;67787;50.074;21.904;2023-04-30T23:31:28;99544.85;;;5.09;54.67
36138;BME280;67787;50.074;21.904;2023-04-30T23:33:58;99551.04;;;5.08;54.82
36138;BME280;67787;50.074;21.904;2023-04-30T23:36:29;99550.23;;;5.06;54.82
36138;BME280;67787;50.074;21.904;2023-04-30T23:38:56;99556.45;;;5.04;54.79
36138;BME280;67787;50.074;21.904;2023-04-30T23:41:23;99552.59;;;5.00;54.83
36138;BME280;67787;50.074;21.904;2023-04-30T23:43:51;99556.63;;;5.00;54.90
36138;BME280;67787;50.074;21.904;2023-04-30T23:46:17;99555.45;;;4.99;54.94
36138;BME280;67787;50.074;21.904;2023-04-30T23:48:50;99556.73;;;4.98;54.96
36138;BME280;67787;50.074;21.904;2023-04-30T23:51:19;99557.80;;;4.97;54.90
36138;BME280;67787;50.074;21.904;2023-04-30T23:53:56;99555.87;;;4.93;54.94
36138;BME280;67787;50.074;21.904;2023-04-30T23:56:25;99559.34;;;4.90;55.08
36138;BME280;67787;50.074;21.904;2023-04-30T23:58:52;99559.73;;;4.85;55.13
